Albrightsville, Pennsylvania
Current Conditions -  °F | °C
As of 4:53 PM on Monday 22 Dec 2014 (Local Time) from KMPO Reporting Station
Moderate Fog Moderate Fog  
Wind Chill: 26°   Ceiling: 100
Heat Index: 32°   Visibility: 0.25mi
Dew Point: 30°   Wind: 7mph
Humidity: 92%   Direction: 100°E
Pressure: 30.13"   Gusts: NA
Location:  41°N, 75.53°W
Report Text: KMPO 222153Z AUTO 10006KT 1/4SM FG VV001 00/M01 A3013 RMK AO2 SLP228 I1004 T00001011
Loading
Personal Weather Stations






























Interactive Weather Map New forecast layout! Learn more

10-Day Weather Forecast

Advertisements
Track Severe Weather on mobile